createdAt,value
2019-02-22T00:04:06.032Z,8.58
2019-02-22T00:09:10.597Z,8.58
2019-02-22T00:14:14.686Z,8.56
2019-02-22T00:19:18.865Z,8.55
2019-02-22T00:24:22.913Z,8.54
2019-02-22T00:29:34.692Z,8.54
2019-02-22T00:34:38.819Z,8.56
2019-02-22T00:39:43.194Z,8.56
2019-02-22T00:44:47.300Z,8.55
2019-02-22T00:49:51.400Z,8.52
2019-02-22T00:54:55.803Z,8.51
2019-02-22T01:00:00.007Z,8.48
2019-02-22T01:05:04.051Z,8.43
2019-02-22T01:10:08.141Z,8.43
2019-02-22T01:15:12.312Z,8.35
2019-02-22T01:20:16.517Z,8.30
2019-02-22T01:25:20.646Z,8.26
2019-02-22T01:30:25.135Z,8.22
2019-02-22T01:35:29.167Z,8.16
2019-02-22T01:40:42.991Z,8.09
2019-02-22T01:46:03.477Z,8.07
2019-02-22T01:51:07.916Z,8.02
2019-02-22T01:56:11.961Z,8.02
2019-02-22T02:01:16.110Z,7.97
2019-02-22T02:06:20.647Z,7.97
2019-02-22T02:11:24.730Z,7.95
2019-02-22T02:16:28.846Z,7.93
2019-02-22T02:21:32.991Z,7.91
2019-02-22T02:26:37.026Z,7.91
2019-02-22T02:31:41.129Z,7.90
2019-02-22T02:36:45.208Z,7.87
2019-02-22T02:41:49.672Z,7.84
2019-02-22T02:46:53.794Z,7.80
2019-02-22T02:51:58.245Z,7.82
2019-02-22T02:57:02.459Z,7.84
2019-02-22T03:02:06.498Z,7.84
2019-02-22T03:07:10.610Z,7.82
2019-02-22T03:12:14.756Z,7.84
2019-02-22T03:17:24.106Z,7.84
2019-02-22T03:22:28.255Z,7.85
2019-02-22T03:32:47.722Z,7.83
2019-02-22T03:37:51.838Z,7.79
2019-02-22T03:42:55.904Z,7.76
2019-02-22T03:48:00.348Z,7.79
2019-02-22T03:53:04.428Z,7.74
2019-02-22T03:58:10.322Z,7.71
2019-02-22T04:03:14.571Z,7.72
2019-02-22T04:08:18.940Z,7.72
2019-02-22T04:13:23.004Z,7.62
2019-02-22T04:18:27.018Z,7.52
2019-02-22T04:23:31.136Z,7.55
2019-02-22T04:28:35.345Z,7.60
2019-02-22T04:33:40.185Z,7.27
2019-02-22T04:39:05.036Z,6.97
2019-02-22T04:44:09.688Z,6.78
2019-02-22T04:49:13.848Z,6.80
2019-02-22T04:54:18.733Z,6.81
2019-02-22T04:59:22.968Z,6.71
2019-02-22T05:04:27.027Z,6.63
2019-02-22T05:09:31.319Z,6.47
2019-02-22T05:14:35.466Z,6.40
2019-02-22T05:24:55.104Z,6.15
2019-02-22T05:29:59.533Z,5.93
2019-02-22T05:35:03.697Z,5.78
2019-02-22T05:40:07.869Z,5.66
2019-02-22T05:45:17.922Z,5.30
2019-02-22T05:50:22.021Z,5.10
2019-02-22T05:55:26.097Z,4.87
2019-02-22T06:00:30.227Z,4.47
2019-02-22T06:05:34.261Z,4.37
2019-02-22T06:10:38.357Z,4.16
2019-02-22T06:15:43.001Z,4.07
2019-02-22T06:20:47.374Z,3.82
2019-02-22T06:25:51.809Z,3.74
2019-02-22T06:30:55.884Z,3.65
2019-02-22T06:36:00.230Z,3.57
2019-02-22T06:41:04.758Z,3.53
2019-02-22T06:46:09.168Z,3.54
2019-02-22T06:51:13.605Z,3.56
2019-02-22T06:56:18.380Z,3.51
2019-02-22T07:01:22.798Z,3.47
2019-02-22T07:06:27.022Z,3.45
2019-02-22T07:11:31.131Z,3.47
2019-02-22T07:16:35.596Z,3.57
2019-02-22T07:21:51.813Z,3.60
2019-02-22T07:26:45.765Z,3.60
2019-02-22T07:31:50.210Z,3.60
2019-02-22T07:36:54.461Z,3.60
2019-02-22T07:41:58.509Z,3.55
2019-02-22T07:47:02.532Z,3.57
2019-02-22T07:52:06.566Z,3.34
2019-02-22T07:57:10.712Z,3.31
2019-02-22T08:02:14.868Z,3.16
2019-02-22T08:07:19.245Z,3.02
2019-02-22T08:12:23.275Z,2.93
2019-02-22T08:17:27.362Z,2.98
2019-02-22T08:22:31.471Z,2.95
2019-02-22T08:27:35.481Z,2.62
2019-02-22T08:32:39.671Z,2.62
2019-02-22T08:37:43.759Z,2.60
2019-02-22T08:42:48.072Z,2.62
2019-02-22T08:47:52.511Z,2.33
2019-02-22T08:52:56.547Z,2.57
2019-02-22T08:58:00.941Z,2.55
2019-02-22T09:03:05.014Z,2.70
2019-02-22T09:08:09.058Z,2.68
2019-02-22T09:13:13.168Z,2.89
2019-02-22T09:18:17.538Z,2.62
2019-02-22T09:23:21.581Z,2.36
2019-02-22T09:28:25.625Z,2.60
2019-02-22T09:33:29.821Z,2.79
2019-02-22T09:38:33.866Z,2.99
2019-02-22T09:43:37.979Z,2.81
2019-02-22T09:48:42.165Z,2.94
2019-02-22T09:53:46.236Z,3.11
2019-02-22T09:58:50.359Z,3.03
2019-02-22T10:03:54.397Z,3.25
2019-02-22T10:08:58.436Z,3.40
2019-02-22T10:14:06.699Z,3.34
2019-02-22T10:19:09.598Z,3.34
2019-02-22T10:24:13.741Z,3.57
2019-02-22T10:29:17.981Z,3.82
2019-02-22T10:34:22.084Z,5.73
2019-02-22T10:39:26.199Z,6.10
2019-02-22T10:44:30.628Z,6.69
2019-02-22T10:49:35.096Z,6.40
2019-02-22T10:54:39.169Z,6.00
2019-02-22T10:59:43.245Z,6.17
2019-02-22T11:04:47.338Z,7.73
2019-02-22T11:09:51.431Z,8.12
2019-02-22T11:14:56.123Z,9.14
2019-02-22T11:20:00.738Z,9.10
2019-02-22T11:25:07.362Z,7.53
2019-02-22T11:30:12.023Z,6.90
2019-02-22T11:35:16.163Z,7.29
2019-02-22T11:40:20.271Z,7.22
2019-02-22T11:45:24.356Z,7.83
2019-02-22T11:50:28.436Z,7.23
2019-02-22T11:55:32.515Z,6.88
2019-02-22T12:00:55.549Z,6.19
2019-02-22T12:05:59.594Z,5.57
2019-02-22T12:11:03.696Z,5.58
2019-02-22T12:16:07.770Z,5.74
2019-02-22T12:21:11.853Z,6.05
2019-02-22T12:31:33.761Z,7.04
2019-02-22T12:36:37.874Z,6.66
2019-02-22T12:41:41.975Z,6.38
2019-02-22T12:46:46.121Z,6.08
2019-02-22T12:51:50.247Z,7.16
2019-02-22T12:56:57.449Z,5.99
2019-02-22T13:07:22.085Z,6.31
2019-02-22T13:12:46.118Z,6.55
2019-02-22T13:17:50.219Z,6.14
2019-02-22T13:22:54.359Z,6.92
2019-02-22T13:27:58.652Z,6.66
2019-02-22T13:33:03.092Z,5.88
2019-02-22T13:38:07.181Z,5.57
2019-02-22T13:43:11.673Z,6.02
2019-02-22T13:48:16.215Z,6.45
2019-02-22T13:58:36.082Z,6.54
2019-02-22T14:03:40.240Z,6.93
2019-02-22T14:08:44.311Z,6.72
2019-02-22T14:13:48.403Z,6.88
2019-02-22T14:18:52.477Z,5.88
2019-02-22T14:23:56.564Z,5.72
2019-02-22T14:29:00.621Z,5.85
2019-02-22T14:34:04.640Z,6.16
2019-02-22T14:39:08.696Z,6.20
2019-02-22T14:44:12.757Z,5.93
2019-02-22T14:49:16.805Z,5.86
2019-02-22T14:54:20.879Z,6.05
2019-02-22T14:59:24.947Z,6.01
2019-02-22T15:04:29.331Z,5.79
2019-02-22T15:09:33.363Z,6.27
2019-02-22T15:14:37.359Z,6.45
2019-02-22T15:19:41.603Z,6.07
2019-02-22T15:24:45.667Z,6.14
2019-02-22T15:29:52.084Z,6.27
2019-02-22T15:34:56.106Z,5.82
2019-02-22T15:40:00.286Z,5.36
2019-02-22T15:45:05.153Z,4.96
2019-02-22T15:50:11.723Z,4.85
2019-02-22T15:55:15.781Z,4.48
2019-02-22T16:00:23.019Z,3.96
2019-02-22T16:05:27.137Z,3.76
2019-02-22T16:10:31.317Z,3.46
2019-02-22T16:15:36.275Z,3.26
2019-02-22T16:20:40.517Z,3.03
2019-02-22T16:25:44.713Z,2.77
2019-02-22T16:30:48.754Z,2.51
2019-02-22T16:35:52.892Z,2.22
2019-02-22T16:40:58.074Z,1.88
2019-02-22T16:46:20.072Z,1.49
2019-02-22T16:51:24.168Z,1.17
2019-02-22T16:56:28.173Z,0.95
2019-02-22T17:01:32.235Z,0.78
2019-02-22T17:06:36.373Z,0.64
2019-02-22T17:11:40.497Z,0.51
2019-02-22T17:16:46.141Z,0.35
2019-02-22T17:21:50.291Z,0.14
2019-02-22T17:26:54.505Z,-0.01
2019-02-22T17:31:58.554Z,0.03
2019-02-22T17:37:02.673Z,-0.32
2019-02-22T17:42:06.735Z,-0.62
2019-02-22T17:47:10.780Z,-0.58
2019-02-22T17:52:14.807Z,-0.84
2019-02-22T17:57:18.855Z,-0.96
2019-02-22T18:02:23.114Z,-1.15
2019-02-22T18:07:27.130Z,-1.50
2019-02-22T18:12:31.165Z,-1.69
2019-02-22T18:17:35.270Z,-1.67
2019-02-22T18:22:41.456Z,-1.73
2019-02-22T18:27:45.082Z,-1.36
2019-02-22T18:32:51.236Z,-1.58
2019-02-22T18:37:55.259Z,-1.63
2019-02-22T18:43:11.871Z,-1.52
2019-02-22T18:48:20.580Z,-1.35
2019-02-22T18:53:24.663Z,-1.51
2019-02-22T18:58:29.470Z,-1.47
2019-02-22T19:03:33.542Z,-1.51
2019-02-22T19:08:38.231Z,-1.38
2019-02-22T19:13:42.994Z,-1.35
2019-02-22T19:18:47.144Z,-1.53
2019-02-22T19:23:51.629Z,-1.73
2019-02-22T19:28:56.262Z,-1.97
2019-02-22T19:34:02.147Z,-2.32
2019-02-22T19:39:09.004Z,-2.38
2019-02-22T19:44:13.149Z,-2.25
2019-02-22T19:49:17.220Z,-2.56
2019-02-22T19:54:21.327Z,-2.39
2019-02-22T20:15:33.241Z,-2.93
2019-02-22T20:25:52.607Z,-2.91
2019-02-22T20:30:56.679Z,-3.10
2019-02-22T20:36:00.730Z,-3.13
2019-02-22T20:41:04.974Z,-2.94
2019-02-22T20:46:09.056Z,-2.95
2019-02-22T20:51:13.150Z,-3.01
2019-02-22T20:56:17.209Z,-2.87
2019-02-22T21:06:36.664Z,-2.81
2019-02-22T21:16:56.361Z,-2.85
2019-02-22T21:22:00.416Z,-2.85
2019-02-22T21:27:10.572Z,-2.66
2019-02-22T21:32:14.665Z,-2.77
2019-02-22T21:37:18.734Z,-2.78
2019-02-22T21:42:22.821Z,-2.89
2019-02-22T21:47:27.066Z,-2.84
2019-02-22T21:52:31.106Z,-2.99
2019-02-22T21:57:35.175Z,-2.94
2019-02-22T22:02:39.335Z,-3.14
2019-02-22T22:08:01.434Z,-3.31
2019-02-22T22:13:05.643Z,-3.53
2019-02-22T22:18:38.522Z,-3.65
2019-02-22T22:23:40.086Z,-3.64
2019-02-22T22:28:44.195Z,-3.54
2019-02-22T22:33:48.681Z,-3.60
2019-02-22T22:38:54.892Z,-3.68
2019-02-22T22:44:03.729Z,-3.60
2019-02-22T22:49:08.223Z,-3.62
2019-02-22T22:54:12.306Z,-3.73
2019-02-22T22:59:16.473Z,-3.60
2019-02-22T23:04:20.588Z,-3.63
2019-02-22T23:09:25.028Z,-3.74
2019-02-22T23:14:29.177Z,-3.63
2019-02-22T23:19:33.282Z,-3.54
2019-02-22T23:24:37.323Z,-3.48
2019-02-22T23:29:41.431Z,-3.51
2019-02-22T23:34:45.549Z,-3.53
2019-02-22T23:40:08.668Z,-3.59
2019-02-22T23:45:12.725Z,-3.53
2019-02-22T23:50:16.767Z,-3.59
2019-02-22T23:55:20.879Z,-3.53
